sensor_id;sensor_type;location;lat;lon;timestamp;P1;durP1;ratioP1;P2;durP2;ratioP2
20511;SDS011;10414;52.074;5.126;2023-03-19T00:00:48;4.88;;;2.53;;
20511;SDS011;10414;52.074;5.126;2023-03-19T00:03:18;6.25;;;2.83;;
20511;SDS011;10414;52.074;5.126;2023-03-19T00:05:49;6.05;;;3.15;;
20511;SDS011;10414;52.074;5.126;2023-03-19T00:08:18;5.93;;;2.88;;
20511;SDS011;10414;52.074;5.126;2023-03-19T00:10:45;5.93;;;2.63;;
20511;SDS011;10414;52.074;5.126;2023-03-19T00:13:17;6.38;;;2.90;;
20511;SDS011;10414;52.074;5.126;2023-03-19T00:15:45;7.55;;;3.30;;
20511;SDS011;10414;52.074;5.126;2023-03-19T00:18:14;5.75;;;3.10;;
20511;SDS011;10414;52.074;5.126;2023-03-19T00:20:41;5.50;;;3.10;;
20511;SDS011;10414;52.074;5.126;2023-03-19T00:23:08;5.68;;;3.08;;
20511;SDS011;10414;52.074;5.126;2023-03-19T00:25:40;5.72;;;3.15;;
20511;SDS011;10414;52.074;5.126;2023-03-19T00:28:07;5.95;;;3.47;;
20511;SDS011;10414;52.074;5.126;2023-03-19T00:30:34;8.65;;;3.60;;
20511;SDS011;10414;52.074;5.126;2023-03-19T00:33:02;7.90;;;3.55;;
20511;SDS011;10414;52.074;5.126;2023-03-19T00:35:28;7.35;;;3.58;;
20511;SDS011;10414;52.074;5.126;2023-03-19T00:37:55;7.30;;;3.50;;
20511;SDS011;10414;52.074;5.126;2023-03-19T00:40:22;7.43;;;3.60;;
20511;SDS011;10414;52.074;5.126;2023-03-19T00:42:51;11.32;;;3.97;;
20511;SDS011;10414;52.074;5.126;2023-03-19T00:45:18;8.80;;;3.72;;
20511;SDS011;10414;52.074;5.126;2023-03-19T00:47:45;7.65;;;3.85;;
20511;SDS011;10414;52.074;5.126;2023-03-19T00:50:12;7.20;;;3.55;;
20511;SDS011;10414;52.074;5.126;2023-03-19T00:52:39;6.15;;;3.83;;
20511;SDS011;10414;52.074;5.126;2023-03-19T00:55:07;7.80;;;4.00;;
20511;SDS011;10414;52.074;5.126;2023-03-19T00:57:35;8.25;;;4.18;;
20511;SDS011;10414;52.074;5.126;2023-03-19T01:00:04;8.82;;;3.60;;
20511;SDS011;10414;52.074;5.126;2023-03-19T01:02:32;7.25;;;3.90;;
20511;SDS011;10414;52.074;5.126;2023-03-19T01:05:00;7.13;;;3.90;;
20511;SDS011;10414;52.074;5.126;2023-03-19T01:07:27;8.50;;;4.40;;
20511;SDS011;10414;52.074;5.126;2023-03-19T01:09:54;6.88;;;3.88;;
20511;SDS011;10414;52.074;5.126;2023-03-19T01:12:24;7.95;;;4.65;;
20511;SDS011;10414;52.074;5.126;2023-03-19T01:14:51;10.93;;;4.80;;
20511;SDS011;10414;52.074;5.126;2023-03-19T01:17:19;10.55;;;5.32;;
20511;SDS011;10414;52.074;5.126;2023-03-19T01:19:49;8.23;;;4.53;;
20511;SDS011;10414;52.074;5.126;2023-03-19T01:22:22;8.15;;;4.60;;
20511;SDS011;10414;52.074;5.126;2023-03-19T01:24:51;8.63;;;5.28;;
20511;SDS011;10414;52.074;5.126;2023-03-19T01:27:19;9.75;;;4.70;;
20511;SDS011;10414;52.074;5.126;2023-03-19T01:29:52;10.80;;;4.68;;
20511;SDS011;10414;52.074;5.126;2023-03-19T01:32:23;9.18;;;4.50;;
20511;SDS011;10414;52.074;5.126;2023-03-19T01:34:55;11.25;;;5.18;;
20511;SDS011;10414;52.074;5.126;2023-03-19T01:37:28;8.18;;;4.97;;
20511;SDS011;10414;52.074;5.126;2023-03-19T01:39:57;9.18;;;5.00;;
20511;SDS011;10414;52.074;5.126;2023-03-19T01:42:28;10.63;;;5.40;;
20511;SDS011;10414;52.074;5.126;2023-03-19T01:44:58;9.57;;;5.05;;
20511;SDS011;10414;52.074;5.126;2023-03-19T01:47:32;9.45;;;5.25;;
20511;SDS011;10414;52.074;5.126;2023-03-19T01:50:05;11.73;;;5.50;;
20511;SDS011;10414;52.074;5.126;2023-03-19T01:52:45;9.25;;;5.15;;
20511;SDS011;10414;52.074;5.126;2023-03-19T01:55:12;10.65;;;5.68;;
20511;SDS011;10414;52.074;5.126;2023-03-19T01:57:39;10.18;;;5.15;;
20511;SDS011;10414;52.074;5.126;2023-03-19T02:00:09;9.40;;;5.55;;
20511;SDS011;10414;52.074;5.126;2023-03-19T02:02:38;9.98;;;5.53;;
20511;SDS011;10414;52.074;5.126;2023-03-19T02:05:07;10.45;;;5.97;;
20511;SDS011;10414;52.074;5.126;2023-03-19T02:07:37;11.18;;;5.13;;
20511;SDS011;10414;52.074;5.126;2023-03-19T02:10:07;9.20;;;5.00;;
20511;SDS011;10414;52.074;5.126;2023-03-19T02:12:36;12.10;;;5.57;;
20511;SDS011;10414;52.074;5.126;2023-03-19T02:15:04;7.88;;;4.85;;
20511;SDS011;10414;52.074;5.126;2023-03-19T02:17:32;9.27;;;5.53;;
20511;SDS011;10414;52.074;5.126;2023-03-19T02:20:03;10.07;;;5.45;;
20511;SDS011;10414;52.074;5.126;2023-03-19T02:22:33;11.80;;;5.97;;
20511;SDS011;10414;52.074;5.126;2023-03-19T02:25:05;9.35;;;6.13;;
20511;SDS011;10414;52.074;5.126;2023-03-19T02:27:39;10.57;;;5.90;;
20511;SDS011;10414;52.074;5.126;2023-03-19T02:32:50;10.57;;;6.00;;
20511;SDS011;10414;52.074;5.126;2023-03-19T02:35:17;12.55;;;6.30;;
20511;SDS011;10414;52.074;5.126;2023-03-19T02:37:44;11.85;;;6.63;;
20511;SDS011;10414;52.074;5.126;2023-03-19T02:40:12;12.30;;;7.10;;
20511;SDS011;10414;52.074;5.126;2023-03-19T02:42:45;14.82;;;7.03;;
20511;SDS011;10414;52.074;5.126;2023-03-19T02:45:13;14.02;;;7.00;;
20511;SDS011;10414;52.074;5.126;2023-03-19T02:47:41;13.25;;;7.25;;
20511;SDS011;10414;52.074;5.126;2023-03-19T02:50:10;13.30;;;7.07;;
20511;SDS011;10414;52.074;5.126;2023-03-19T02:52:38;16.20;;;7.55;;
20511;SDS011;10414;52.074;5.126;2023-03-19T02:55:05;15.55;;;7.47;;
20511;SDS011;10414;52.074;5.126;2023-03-19T02:57:33;13.35;;;7.40;;
20511;SDS011;10414;52.074;5.126;2023-03-19T03:00:02;13.98;;;8.23;;
20511;SDS011;10414;52.074;5.126;2023-03-19T03:02:29;15.82;;;7.63;;
20511;SDS011;10414;52.074;5.126;2023-03-19T03:04:56;14.88;;;7.85;;
20511;SDS011;10414;52.074;5.126;2023-03-19T03:07:23;14.98;;;7.80;;
20511;SDS011;10414;52.074;5.126;2023-03-19T03:09:51;15.93;;;8.25;;
20511;SDS011;10414;52.074;5.126;2023-03-19T03:12:18;16.45;;;8.57;;
20511;SDS011;10414;52.074;5.126;2023-03-19T03:14:45;15.63;;;8.50;;
20511;SDS011;10414;52.074;5.126;2023-03-19T03:17:16;15.18;;;8.75;;
20511;SDS011;10414;52.074;5.126;2023-03-19T03:19:44;20.85;;;8.50;;
20511;SDS011;10414;52.074;5.126;2023-03-19T03:22:11;15.18;;;8.80;;
20511;SDS011;10414;52.074;5.126;2023-03-19T03:24:38;16.42;;;8.30;;
20511;SDS011;10414;52.074;5.126;2023-03-19T03:27:06;17.88;;;8.63;;
20511;SDS011;10414;52.074;5.126;2023-03-19T03:29:33;15.63;;;8.25;;
20511;SDS011;10414;52.074;5.126;2023-03-19T03:32:00;16.00;;;9.02;;
20511;SDS011;10414;52.074;5.126;2023-03-19T03:34:29;14.25;;;8.52;;
20511;SDS011;10414;52.074;5.126;2023-03-19T03:36:55;15.82;;;8.95;;
20511;SDS011;10414;52.074;5.126;2023-03-19T03:39:22;15.48;;;8.93;;
20511;SDS011;10414;52.074;5.126;2023-03-19T03:41:49;14.90;;;9.40;;
20511;SDS011;10414;52.074;5.126;2023-03-19T03:44:16;16.08;;;9.23;;
20511;SDS011;10414;52.074;5.126;2023-03-19T03:46:43;16.83;;;9.50;;
20511;SDS011;10414;52.074;5.126;2023-03-19T03:49:10;16.55;;;9.07;;
20511;SDS011;10414;52.074;5.126;2023-03-19T03:51:38;19.02;;;9.95;;
20511;SDS011;10414;52.074;5.126;2023-03-19T03:54:06;19.50;;;10.13;;
20511;SDS011;10414;52.074;5.126;2023-03-19T03:56:35;18.50;;;9.95;;
20511;SDS011;10414;52.074;5.126;2023-03-19T03:59:02;17.85;;;10.32;;
20511;SDS011;10414;52.074;5.126;2023-03-19T04:01:29;18.98;;;10.57;;
20511;SDS011;10414;52.074;5.126;2023-03-19T04:03:56;20.38;;;10.32;;
20511;SDS011;10414;52.074;5.126;2023-03-19T04:06:23;20.38;;;10.43;;
20511;SDS011;10414;52.074;5.126;2023-03-19T04:08:54;17.00;;;10.23;;
20511;SDS011;10414;52.074;5.126;2023-03-19T04:11:23;18.95;;;10.43;;
20511;SDS011;10414;52.074;5.126;2023-03-19T04:13:50;19.73;;;10.07;;
20511;SDS011;10414;52.074;5.126;2023-03-19T04:16:17;19.45;;;10.40;;
20511;SDS011;10414;52.074;5.126;2023-03-19T04:18:56;19.55;;;10.07;;
20511;SDS011;10414;52.074;5.126;2023-03-19T04:21:23;19.60;;;9.75;;
20511;SDS011;10414;52.074;5.126;2023-03-19T04:23:50;20.13;;;10.52;;
20511;SDS011;10414;52.074;5.126;2023-03-19T04:26:18;19.52;;;9.93;;
20511;SDS011;10414;52.074;5.126;2023-03-19T04:28:45;19.00;;;9.77;;
20511;SDS011;10414;52.074;5.126;2023-03-19T04:31:15;22.27;;;10.90;;
20511;SDS011;10414;52.074;5.126;2023-03-19T04:33:42;21.58;;;11.40;;
20511;SDS011;10414;52.074;5.126;2023-03-19T04:36:11;21.63;;;11.35;;
20511;SDS011;10414;52.074;5.126;2023-03-19T04:38:38;22.88;;;12.75;;
20511;SDS011;10414;52.074;5.126;2023-03-19T04:41:05;23.52;;;12.18;;
20511;SDS011;10414;52.074;5.126;2023-03-19T04:43:34;23.15;;;11.57;;
20511;SDS011;10414;52.074;5.126;2023-03-19T04:46:01;23.70;;;12.10;;
20511;SDS011;10414;52.074;5.126;2023-03-19T04:48:28;21.25;;;11.60;;
20511;SDS011;10414;52.074;5.126;2023-03-19T04:50:55;24.30;;;11.75;;
20511;SDS011;10414;52.074;5.126;2023-03-19T04:53:22;24.55;;;11.68;;
20511;SDS011;10414;52.074;5.126;2023-03-19T04:55:49;23.85;;;12.02;;
20511;SDS011;10414;52.074;5.126;2023-03-19T04:58:16;22.50;;;11.70;;
20511;SDS011;10414;52.074;5.126;2023-03-19T05:00:44;23.83;;;12.23;;
20511;SDS011;10414;52.074;5.126;2023-03-19T05:03:12;26.48;;;12.00;;
20511;SDS011;10414;52.074;5.126;2023-03-19T05:05:39;28.25;;;11.90;;
20511;SDS011;10414;52.074;5.126;2023-03-19T05:08:06;26.45;;;12.52;;
20511;SDS011;10414;52.074;5.126;2023-03-19T05:10:33;22.45;;;11.60;;
20511;SDS011;10414;52.074;5.126;2023-03-19T05:13:00;24.45;;;11.52;;
20511;SDS011;10414;52.074;5.126;2023-03-19T05:15:27;26.95;;;12.25;;
20511;SDS011;10414;52.074;5.126;2023-03-19T05:17:58;27.55;;;12.45;;
20511;SDS011;10414;52.074;5.126;2023-03-19T05:20:26;29.88;;;12.73;;
20511;SDS011;10414;52.074;5.126;2023-03-19T05:22:59;31.13;;;13.52;;
20511;SDS011;10414;52.074;5.126;2023-03-19T05:25:27;32.70;;;13.40;;
20511;SDS011;10414;52.074;5.126;2023-03-19T05:27:57;27.33;;;13.02;;
20511;SDS011;10414;52.074;5.126;2023-03-19T05:30:24;32.47;;;13.05;;
20511;SDS011;10414;52.074;5.126;2023-03-19T05:32:53;30.17;;;14.35;;
20511;SDS011;10414;52.074;5.126;2023-03-19T05:35:23;28.38;;;13.50;;
20511;SDS011;10414;52.074;5.126;2023-03-19T05:37:50;31.75;;;13.38;;
20511;SDS011;10414;52.074;5.126;2023-03-19T05:40:20;32.45;;;14.43;;
20511;SDS011;10414;52.074;5.126;2023-03-19T05:42:48;28.73;;;14.07;;
20511;SDS011;10414;52.074;5.126;2023-03-19T05:47:59;33.38;;;15.13;;
20511;SDS011;10414;52.074;5.126;2023-03-19T05:50:28;32.90;;;14.77;;
20511;SDS011;10414;52.074;5.126;2023-03-19T05:53:00;34.15;;;14.38;;
20511;SDS011;10414;52.074;5.126;2023-03-19T05:55:30;31.45;;;15.23;;
20511;SDS011;10414;52.074;5.126;2023-03-19T05:58:05;34.83;;;15.15;;
20511;SDS011;10414;52.074;5.126;2023-03-19T06:00:32;31.05;;;14.65;;
20511;SDS011;10414;52.074;5.126;2023-03-19T06:03:01;30.50;;;14.55;;
20511;SDS011;10414;52.074;5.126;2023-03-19T06:05:34;34.60;;;16.17;;
20511;SDS011;10414;52.074;5.126;2023-03-19T06:08:10;32.67;;;15.88;;
20511;SDS011;10414;52.074;5.126;2023-03-19T06:10:40;35.80;;;17.42;;
20511;SDS011;10414;52.074;5.126;2023-03-19T06:13:10;31.10;;;15.60;;
20511;SDS011;10414;52.074;5.126;2023-03-19T06:15:37;32.58;;;16.05;;
20511;SDS011;10414;52.074;5.126;2023-03-19T06:18:04;35.90;;;16.27;;
20511;SDS011;10414;52.074;5.126;2023-03-19T06:20:36;32.08;;;15.77;;
20511;SDS011;10414;52.074;5.126;2023-03-19T06:23:03;36.13;;;16.42;;
20511;SDS011;10414;52.074;5.126;2023-03-19T06:25:30;33.45;;;15.98;;
20511;SDS011;10414;52.074;5.126;2023-03-19T06:28:06;36.60;;;16.48;;
20511;SDS011;10414;52.074;5.126;2023-03-19T06:30:36;38.45;;;16.42;;
20511;SDS011;10414;52.074;5.126;2023-03-19T06:33:09;37.65;;;17.40;;
20511;SDS011;10414;52.074;5.126;2023-03-19T06:35:38;35.30;;;17.65;;
20511;SDS011;10414;52.074;5.126;2023-03-19T06:38:05;35.65;;;15.57;;
20511;SDS011;10414;52.074;5.126;2023-03-19T06:40:40;38.55;;;16.50;;
20511;SDS011;10414;52.074;5.126;2023-03-19T06:43:07;33.67;;;15.57;;
20511;SDS011;10414;52.074;5.126;2023-03-19T06:45:35;34.05;;;16.55;;
20511;SDS011;10414;52.074;5.126;2023-03-19T06:48:05;35.92;;;16.65;;
20511;SDS011;10414;52.074;5.126;2023-03-19T06:50:35;30.95;;;14.80;;
20511;SDS011;10414;52.074;5.126;2023-03-19T06:53:08;34.08;;;16.70;;
20511;SDS011;10414;52.074;5.126;2023-03-19T06:55:39;33.75;;;14.85;;
20511;SDS011;10414;52.074;5.126;2023-03-19T06:58:07;37.60;;;16.45;;
20511;SDS011;10414;52.074;5.126;2023-03-19T07:00:34;36.17;;;16.50;;
20511;SDS011;10414;52.074;5.126;2023-03-19T07:03:01;38.47;;;16.42;;
20511;SDS011;10414;52.074;5.126;2023-03-19T07:05:28;34.70;;;15.05;;
20511;SDS011;10414;52.074;5.126;2023-03-19T07:07:56;36.17;;;15.98;;
20511;SDS011;10414;52.074;5.126;2023-03-19T07:10:37;33.55;;;16.45;;
20511;SDS011;10414;52.074;5.126;2023-03-19T07:13:04;36.05;;;16.58;;
20511;SDS011;10414;52.074;5.126;2023-03-19T07:15:31;35.40;;;16.80;;
20511;SDS011;10414;52.074;5.126;2023-03-19T07:18:00;33.83;;;15.73;;
20511;SDS011;10414;52.074;5.126;2023-03-19T07:20:30;34.75;;;16.00;;
20511;SDS011;10414;52.074;5.126;2023-03-19T07:22:59;33.15;;;15.38;;
20511;SDS011;10414;52.074;5.126;2023-03-19T07:25:29;31.92;;;14.88;;
20511;SDS011;10414;52.074;5.126;2023-03-19T07:28:03;32.03;;;15.05;;
20511;SDS011;10414;52.074;5.126;2023-03-19T07:30:31;35.92;;;14.57;;
20511;SDS011;10414;52.074;5.126;2023-03-19T07:33:01;33.33;;;15.10;;
20511;SDS011;10414;52.074;5.126;2023-03-19T07:35:30;31.88;;;14.30;;
20511;SDS011;10414;52.074;5.126;2023-03-19T07:37:57;32.80;;;13.98;;
20511;SDS011;10414;52.074;5.126;2023-03-19T07:40:26;30.92;;;14.13;;
20511;SDS011;10414;52.074;5.126;2023-03-19T07:42:54;28.95;;;13.88;;
20511;SDS011;10414;52.074;5.126;2023-03-19T07:45:23;30.00;;;14.70;;
20511;SDS011;10414;52.074;5.126;2023-03-19T07:47:52;33.50;;;15.23;;
20511;SDS011;10414;52.074;5.126;2023-03-19T07:50:19;27.88;;;12.95;;
20511;SDS011;10414;52.074;5.126;2023-03-19T07:52:46;30.85;;;14.57;;
20511;SDS011;10414;52.074;5.126;2023-03-19T07:55:15;30.20;;;13.93;;
20511;SDS011;10414;52.074;5.126;2023-03-19T07:57:48;26.75;;;12.98;;
20511;SDS011;10414;52.074;5.126;2023-03-19T08:00:18;26.52;;;13.23;;
20511;SDS011;10414;52.074;5.126;2023-03-19T08:05:24;26.13;;;12.25;;
20511;SDS011;10414;52.074;5.126;2023-03-19T08:07:53;31.73;;;14.20;;
20511;SDS011;10414;52.074;5.126;2023-03-19T08:10:23;23.23;;;11.38;;
20511;SDS011;10414;52.074;5.126;2023-03-19T08:12:50;27.27;;;12.23;;
20511;SDS011;10414;52.074;5.126;2023-03-19T08:15:25;25.25;;;13.05;;
20511;SDS011;10414;52.074;5.126;2023-03-19T08:17:57;25.50;;;12.30;;
20511;SDS011;10414;52.074;5.126;2023-03-19T08:20:25;28.13;;;13.05;;
20511;SDS011;10414;52.074;5.126;2023-03-19T08:22:52;27.30;;;12.82;;
20511;SDS011;10414;52.074;5.126;2023-03-19T08:25:24;32.80;;;12.15;;
20511;SDS011;10414;52.074;5.126;2023-03-19T08:27:57;24.90;;;12.40;;
20511;SDS011;10414;52.074;5.126;2023-03-19T08:30:25;27.38;;;12.85;;
20511;SDS011;10414;52.074;5.126;2023-03-19T08:32:52;24.92;;;12.50;;
20511;SDS011;10414;52.074;5.126;2023-03-19T08:35:24;27.25;;;12.73;;
20511;SDS011;10414;52.074;5.126;2023-03-19T08:37:54;27.10;;;12.27;;
20511;SDS011;10414;52.074;5.126;2023-03-19T08:40:22;29.80;;;14.07;;
20511;SDS011;10414;52.074;5.126;2023-03-19T08:42:50;27.20;;;14.23;;
20511;SDS011;10414;52.074;5.126;2023-03-19T08:45:17;29.13;;;13.77;;
20511;SDS011;10414;52.074;5.126;2023-03-19T08:47:45;28.30;;;13.35;;
20511;SDS011;10414;52.074;5.126;2023-03-19T08:50:15;33.03;;;14.20;;
20511;SDS011;10414;52.074;5.126;2023-03-19T08:52:43;27.37;;;11.43;;
20511;SDS011;10414;52.074;5.126;2023-03-19T08:55:11;28.85;;;12.60;;
20511;SDS011;10414;52.074;5.126;2023-03-19T08:57:38;29.90;;;12.95;;
20511;SDS011;10414;52.074;5.126;2023-03-19T09:00:06;32.00;;;13.95;;
20511;SDS011;10414;52.074;5.126;2023-03-19T09:02:37;30.98;;;14.15;;
20511;SDS011;10414;52.074;5.126;2023-03-19T09:05:05;30.90;;;13.50;;
20511;SDS011;10414;52.074;5.126;2023-03-19T09:07:36;29.50;;;13.00;;
20511;SDS011;10414;52.074;5.126;2023-03-19T09:10:08;27.58;;;12.65;;
20511;SDS011;10414;52.074;5.126;2023-03-19T09:12:39;26.10;;;12.32;;
20511;SDS011;10414;52.074;5.126;2023-03-19T09:15:08;23.80;;;11.85;;
20511;SDS011;10414;52.074;5.126;2023-03-19T09:17:36;25.90;;;12.40;;
20511;SDS011;10414;52.074;5.126;2023-03-19T09:20:03;25.75;;;11.77;;
20511;SDS011;10414;52.074;5.126;2023-03-19T09:22:34;29.45;;;12.80;;
20511;SDS011;10414;52.074;5.126;2023-03-19T09:25:03;29.75;;;11.95;;
20511;SDS011;10414;52.074;5.126;2023-03-19T09:27:31;26.00;;;11.18;;
20511;SDS011;10414;52.074;5.126;2023-03-19T09:29:59;24.70;;;11.98;;
20511;SDS011;10414;52.074;5.126;2023-03-19T09:32:26;27.60;;;12.82;;
20511;SDS011;10414;52.074;5.126;2023-03-19T09:34:53;28.70;;;11.88;;
20511;SDS011;10414;52.074;5.126;2023-03-19T09:37:21;29.33;;;12.43;;
20511;SDS011;10414;52.074;5.126;2023-03-19T09:39:50;26.55;;;11.10;;
20511;SDS011;10414;52.074;5.126;2023-03-19T09:42:21;28.38;;;11.68;;
20511;SDS011;10414;52.074;5.126;2023-03-19T09:45:11;23.17;;;10.18;;
20511;SDS011;10414;52.074;5.126;2023-03-19T09:47:44;24.25;;;10.38;;
20511;SDS011;10414;52.074;5.126;2023-03-19T09:50:17;21.75;;;10.43;;
20511;SDS011;10414;52.074;5.126;2023-03-19T09:52:50;24.83;;;10.10;;
20511;SDS011;10414;52.074;5.126;2023-03-19T09:55:35;23.88;;;10.18;;
20511;SDS011;10414;52.074;5.126;2023-03-19T09:58:11;20.10;;;9.23;;
20511;SDS011;10414;52.074;5.126;2023-03-19T10:00:42;22.23;;;10.63;;
20511;SDS011;10414;52.074;5.126;2023-03-19T10:03:17;22.70;;;9.63;;
20511;SDS011;10414;52.074;5.126;2023-03-19T10:06:05;21.85;;;10.02;;
20511;SDS011;10414;52.074;5.126;2023-03-19T10:09:00;21.95;;;9.20;;
20511;SDS011;10414;52.074;5.126;2023-03-19T10:11:48;21.10;;;9.30;;
20511;SDS011;10414;52.074;5.126;2023-03-19T10:14:33;25.27;;;10.18;;
20511;SDS011;10414;52.074;5.126;2023-03-19T10:17:24;21.70;;;9.20;;
20511;SDS011;10414;52.074;5.126;2023-03-19T10:19:56;27.02;;;10.38;;
20511;SDS011;10414;52.074;5.126;2023-03-19T10:22:29;26.25;;;10.00;;
20511;SDS011;10414;52.074;5.126;2023-03-19T10:25:07;22.55;;;9.70;;
20511;SDS011;10414;52.074;5.126;2023-03-19T10:27:37;23.60;;;10.65;;
20511;SDS011;10414;52.074;5.126;2023-03-19T10:30:13;22.23;;;10.23;;
20511;SDS011;10414;52.074;5.126;2023-03-19T10:32:42;24.23;;;9.70;;
20511;SDS011;10414;52.074;5.126;2023-03-19T10:35:23;26.88;;;10.65;;
20511;SDS011;10414;52.074;5.126;2023-03-19T10:38:08;23.48;;;10.98;;
20511;SDS011;10414;52.074;5.126;2023-03-19T10:40:47;27.33;;;10.38;;
20511;SDS011;10414;52.074;5.126;2023-03-19T10:43:25;30.13;;;11.55;;
20511;SDS011;10414;52.074;5.126;2023-03-19T10:45:57;21.48;;;9.98;;
20511;SDS011;10414;52.074;5.126;2023-03-19T10:48:29;24.05;;;9.98;;
20511;SDS011;10414;52.074;5.126;2023-03-19T10:50:59;23.65;;;9.98;;
20511;SDS011;10414;52.074;5.126;2023-03-19T10:53:30;21.33;;;9.35;;
20511;SDS011;10414;52.074;5.126;2023-03-19T10:56:00;20.27;;;9.97;;
20511;SDS011;10414;52.074;5.126;2023-03-19T10:58:30;24.88;;;9.50;;
20511;SDS011;10414;52.074;5.126;2023-03-19T11:01:04;24.20;;;9.95;;
20511;SDS011;10414;52.074;5.126;2023-03-19T11:03:39;26.03;;;10.13;;
20511;SDS011;10414;52.074;5.126;2023-03-19T11:06:17;22.30;;;9.32;;
20511;SDS011;10414;52.074;5.126;2023-03-19T11:08:51;22.48;;;10.25;;
20511;SDS011;10414;52.074;5.126;2023-03-19T11:11:25;23.20;;;9.77;;
20511;SDS011;10414;52.074;5.126;2023-03-19T11:13:57;21.23;;;8.32;;
20511;SDS011;10414;52.074;5.126;2023-03-19T11:16:32;22.48;;;8.73;;
20511;SDS011;10414;52.074;5.126;2023-03-19T11:19:18;23.50;;;9.25;;
20511;SDS011;10414;52.074;5.126;2023-03-19T11:21:59;20.48;;;8.35;;
20511;SDS011;10414;52.074;5.126;2023-03-19T11:24:30;19.25;;;7.82;;
20511;SDS011;10414;52.074;5.126;2023-03-19T11:27:01;20.33;;;8.32;;
20511;SDS011;10414;52.074;5.126;2023-03-19T11:29:28;25.23;;;9.10;;
20511;SDS011;10414;52.074;5.126;2023-03-19T11:31:59;23.83;;;9.07;;
20511;SDS011;10414;52.074;5.126;2023-03-19T11:34:41;23.65;;;8.95;;
20511;SDS011;10414;52.074;5.126;2023-03-19T11:37:15;22.58;;;8.93;;
20511;SDS011;10414;52.074;5.126;2023-03-19T11:39:54;25.15;;;9.85;;
20511;SDS011;10414;52.074;5.126;2023-03-19T11:42:32;28.90;;;10.90;;
20511;SDS011;10414;52.074;5.126;2023-03-19T11:45:18;26.05;;;9.35;;
20511;SDS011;10414;52.074;5.126;2023-03-19T11:47:57;25.85;;;9.07;;
20511;SDS011;10414;52.074;5.126;2023-03-19T11:50:39;26.35;;;9.40;;
20511;SDS011;10414;52.074;5.126;2023-03-19T11:53:17;25.33;;;9.02;;
20511;SDS011;10414;52.074;5.126;2023-03-19T11:55:53;29.70;;;9.50;;
20511;SDS011;10414;52.074;5.126;2023-03-19T11:58:42;26.15;;;9.50;;
20511;SDS011;10414;52.074;5.126;2023-03-19T12:01:23;27.95;;;9.70;;
20511;SDS011;10414;52.074;5.126;2023-03-19T12:04:08;28.13;;;9.90;;
20511;SDS011;10414;52.074;5.126;2023-03-19T12:06:59;27.17;;;10.45;;
20511;SDS011;10414;52.074;5.126;2023-03-19T12:09:35;26.92;;;10.82;;
20511;SDS011;10414;52.074;5.126;2023-03-19T12:12:09;29.50;;;10.25;;
20511;SDS011;10414;52.074;5.126;2023-03-19T12:14:52;29.17;;;10.00;;
20511;SDS011;10414;52.074;5.126;2023-03-19T12:17:34;29.80;;;10.80;;
20511;SDS011;10414;52.074;5.126;2023-03-19T12:20:18;29.67;;;10.95;;
20511;SDS011;10414;52.074;5.126;2023-03-19T12:23:04;33.05;;;12.18;;
20511;SDS011;10414;52.074;5.126;2023-03-19T12:25:57;28.63;;;10.57;;
20511;SDS011;10414;52.074;5.126;2023-03-19T12:28:33;26.13;;;11.05;;
20511;SDS011;10414;52.074;5.126;2023-03-19T12:31:12;33.25;;;11.30;;
20511;SDS011;10414;52.074;5.126;2023-03-19T12:33:56;28.33;;;10.63;;
20511;SDS011;10414;52.074;5.126;2023-03-19T12:36:44;32.00;;;12.02;;
20511;SDS011;10414;52.074;5.126;2023-03-19T12:39:19;30.45;;;12.35;;
20511;SDS011;10414;52.074;5.126;2023-03-19T12:41:51;30.27;;;11.45;;
20511;SDS011;10414;52.074;5.126;2023-03-19T12:44:24;27.95;;;11.60;;
20511;SDS011;10414;52.074;5.126;2023-03-19T12:46:55;29.83;;;11.27;;
20511;SDS011;10414;52.074;5.126;2023-03-19T12:49:28;27.65;;;11.90;;
20511;SDS011;10414;52.074;5.126;2023-03-19T12:52:01;26.45;;;10.13;;
20511;SDS011;10414;52.074;5.126;2023-03-19T12:54:34;29.15;;;10.88;;
20511;SDS011;10414;52.074;5.126;2023-03-19T12:57:09;25.88;;;10.30;;
20511;SDS011;10414;52.074;5.126;2023-03-19T12:59:42;26.60;;;10.48;;
20511;SDS011;10414;52.074;5.126;2023-03-19T13:02:16;24.63;;;9.75;;
20511;SDS011;10414;52.074;5.126;2023-03-19T13:04:54;24.63;;;10.07;;
20511;SDS011;10414;52.074;5.126;2023-03-19T13:07:25;19.37;;;8.87;;
20511;SDS011;10414;52.074;5.126;2023-03-19T13:09:59;22.70;;;9.52;;
20511;SDS011;10414;52.074;5.126;2023-03-19T13:12:33;18.40;;;8.65;;
20511;SDS011;10414;52.074;5.126;2023-03-19T13:15:04;22.00;;;9.80;;
20511;SDS011;10414;52.074;5.126;2023-03-19T13:17:38;19.42;;;9.15;;
20511;SDS011;10414;52.074;5.126;2023-03-19T13:20:16;19.15;;;9.13;;
20511;SDS011;10414;52.074;5.126;2023-03-19T13:22:52;21.00;;;8.65;;
20511;SDS011;10414;52.074;5.126;2023-03-19T13:25:22;20.02;;;9.43;;
20511;SDS011;10414;52.074;5.126;2023-03-19T13:27:56;21.25;;;8.85;;
20511;SDS011;10414;52.074;5.126;2023-03-19T13:30:24;18.00;;;8.82;;
20511;SDS011;10414;52.074;5.126;2023-03-19T13:32:52;20.10;;;9.20;;
20511;SDS011;10414;52.074;5.126;2023-03-19T13:35:32;21.08;;;9.00;;
20511;SDS011;10414;52.074;5.126;2023-03-19T13:38:10;17.92;;;9.18;;
20511;SDS011;10414;52.074;5.126;2023-03-19T13:40:44;20.13;;;9.45;;
20511;SDS011;10414;52.074;5.126;2023-03-19T13:43:20;21.02;;;9.02;;
20511;SDS011;10414;52.074;5.126;2023-03-19T13:45:50;18.20;;;8.63;;
20511;SDS011;10414;52.074;5.126;2023-03-19T13:48:22;24.63;;;9.80;;
20511;SDS011;10414;52.074;5.126;2023-03-19T13:51:01;20.48;;;10.25;;
20511;SDS011;10414;52.074;5.126;2023-03-19T13:53:36;22.00;;;9.68;;
20511;SDS011;10414;52.074;5.126;2023-03-19T13:56:07;19.67;;;9.48;;
20511;SDS011;10414;52.074;5.126;2023-03-19T13:58:47;18.58;;;8.98;;
20511;SDS011;10414;52.074;5.126;2023-03-19T14:01:36;19.58;;;9.02;;
20511;SDS011;10414;52.074;5.126;2023-03-19T14:04:14;20.75;;;9.05;;
20511;SDS011;10414;52.074;5.126;2023-03-19T14:06:45;23.27;;;8.77;;
20511;SDS011;10414;52.074;5.126;2023-03-19T14:09:28;20.33;;;9.07;;
20511;SDS011;10414;52.074;5.126;2023-03-19T14:12:08;19.23;;;8.95;;
20511;SDS011;10414;52.074;5.126;2023-03-19T14:14:40;15.52;;;8.07;;
20511;SDS011;10414;52.074;5.126;2023-03-19T14:17:12;16.30;;;8.15;;
20511;SDS011;10414;52.074;5.126;2023-03-19T14:19:41;14.77;;;7.45;;
20511;SDS011;10414;52.074;5.126;2023-03-19T14:22:09;18.85;;;8.40;;
20511;SDS011;10414;52.074;5.126;2023-03-19T14:24:54;22.35;;;9.27;;
20511;SDS011;10414;52.074;5.126;2023-03-19T14:27:30;22.38;;;9.63;;
20511;SDS011;10414;52.074;5.126;2023-03-19T14:29:58;18.77;;;9.35;;
20511;SDS011;10414;52.074;5.126;2023-03-19T14:32:33;19.30;;;8.80;;
20511;SDS011;10414;52.074;5.126;2023-03-19T14:35:05;19.85;;;9.32;;
20511;SDS011;10414;52.074;5.126;2023-03-19T14:37:37;22.35;;;9.93;;
20511;SDS011;10414;52.074;5.126;2023-03-19T14:40:14;18.33;;;8.50;;
20511;SDS011;10414;52.074;5.126;2023-03-19T14:42:49;19.10;;;8.88;;
20511;SDS011;10414;52.074;5.126;2023-03-19T14:45:44;17.33;;;8.50;;
20511;SDS011;10414;52.074;5.126;2023-03-19T14:48:39;19.63;;;8.63;;
20511;SDS011;10414;52.074;5.126;2023-03-19T14:51:38;18.30;;;8.27;;
20511;SDS011;10414;52.074;5.126;2023-03-19T14:54:23;18.38;;;8.65;;
20511;SDS011;10414;52.074;5.126;2023-03-19T14:56:56;19.50;;;8.18;;
20511;SDS011;10414;52.074;5.126;2023-03-19T14:59:23;19.27;;;8.55;;
20511;SDS011;10414;52.074;5.126;2023-03-19T15:01:50;16.35;;;7.95;;
20511;SDS011;10414;52.074;5.126;2023-03-19T15:04:19;21.25;;;8.85;;